KLOU/LOU METAR and TAF weather

Enter ICAO airport designator
Station Type Date Time Source
KLOU METAR 2019/07/17 12:53 UTC NOAA

KLOU 171253Z 21006KT 10SM OVC009 25/23 A2997 RMK AO2 RAB27E38 CIG 007V011 SLP144 P0000 T02500228


Station Type Date Time Source
KLOU Decoded METAR 2019/07/17 12:53 UTC NOAA

BOWMAN FIELD, KY, United States (KLOU) 38-14N 085-40W 164M
Jul 17, 2019 - 08:53 AM EDT / 2019.07.17 1253 UTC
Wind: from the SSW (210 degrees) at 7 MPH (6 KT):0
Visibility: 10 mile(s):0
Sky conditions: overcast
Precipitation last hour: A trace
Temperature: 77.0 F (25.0 C)
Dew Point: 73.0 F (22.8 C)
Relative Humidity: 87%
Pressure (altimeter): 29.97 in. Hg (1014 hPa)
ob: KLOU 171253Z 21006KT 10SM OVC009 25/23 A2997 RMK AO2 RAB27E38 CIG 007V011 SLP144 P0000 T02500228
cycle: 13

Station Type Date Time Source
KLOU TAF UTC NOAA

Error!

Example: see airport list